sensor_id;sensor_type;location;lat;lon;timestamp;pressure;altitude;pressure_sealevel;temperature;humidity
31011;BME280;26395;53.412;19.598;2023-08-24T00:01:00;100480.65;;;22.08;75.78
31011;BME280;26395;53.412;19.598;2023-08-24T00:16:08;100464.71;;;22.04;76.04
31011;BME280;26395;53.412;19.598;2023-08-24T00:31:15;100464.42;;;22.03;77.20
31011;BME280;26395;53.412;19.598;2023-08-24T00:46:19;100461.61;;;22.02;77.12
31011;BME280;26395;53.412;19.598;2023-08-24T01:01:24;100478.38;;;21.99;76.88
31011;BME280;26395;53.412;19.598;2023-08-24T01:16:29;100502.95;;;21.75;78.04
31011;BME280;26395;53.412;19.598;2023-08-24T01:31:35;100502.09;;;21.75;77.76
31011;BME280;26395;53.412;19.598;2023-08-24T01:46:39;100492.34;;;21.69;79.21
31011;BME280;26395;53.412;19.598;2023-08-24T02:01:46;100481.83;;;21.50;79.17
31011;BME280;26395;53.412;19.598;2023-08-24T02:16:49;100475.84;;;21.56;79.78
31011;BME280;26395;53.412;19.598;2023-08-24T02:31:53;100482.19;;;21.30;81.32
31011;BME280;26395;53.412;19.598;2023-08-24T02:46:56;100485.66;;;21.12;81.95
31011;BME280;26395;53.412;19.598;2023-08-24T03:02:00;100484.69;;;20.87;82.81
31011;BME280;26395;53.412;19.598;2023-08-24T03:17:04;100486.55;;;20.61;84.34
31011;BME280;26395;53.412;19.598;2023-08-24T03:32:08;100488.93;;;20.31;85.29
31011;BME280;26395;53.412;19.598;2023-08-24T03:47:11;100486.71;;;19.97;85.55
31011;BME280;26395;53.412;19.598;2023-08-24T04:02:16;100488.06;;;19.63;84.99
31011;BME280;26395;53.412;19.598;2023-08-24T04:17:19;100502.64;;;19.67;88.25
31011;BME280;26395;53.412;19.598;2023-08-24T04:32:23;100500.44;;;19.76;90.72
31011;BME280;26395;53.412;19.598;2023-08-24T04:47:27;100504.53;;;20.41;88.00
31011;BME280;26395;53.412;19.598;2023-08-24T05:02:31;100512.35;;;20.90;85.92
31011;BME280;26395;53.412;19.598;2023-08-24T05:17:34;100513.15;;;21.25;85.09
31011;BME280;26395;53.412;19.598;2023-08-24T05:32:38;100528.58;;;21.38;85.38
31011;BME280;26395;53.412;19.598;2023-08-24T05:47:42;100542.35;;;23.76;83.53
31011;BME280;26395;53.412;19.598;2023-08-24T06:02:45;100545.55;;;26.77;73.78
31011;BME280;26395;53.412;19.598;2023-08-24T06:17:49;100551.68;;;27.57;69.23
31011;BME280;26395;53.412;19.598;2023-08-24T06:32:54;100554.99;;;27.88;67.03
31011;BME280;26395;53.412;19.598;2023-08-24T06:47:58;100553.17;;;29.56;62.05
31011;BME280;26395;53.412;19.598;2023-08-24T07:03:01;100550.55;;;31.05;58.54
31011;BME280;26395;53.412;19.598;2023-08-24T07:18:06;100562.11;;;30.80;56.64
31011;BME280;26395;53.412;19.598;2023-08-24T07:33:10;100563.34;;;30.24;57.48
31011;BME280;26395;53.412;19.598;2023-08-24T07:48:14;100568.17;;;30.45;56.37
31011;BME280;26395;53.412;19.598;2023-08-24T08:03:20;100579.92;;;30.24;55.25
31011;BME280;26395;53.412;19.598;2023-08-24T08:18:24;100587.20;;;31.65;54.28
31011;BME280;26395;53.412;19.598;2023-08-24T08:33:28;100589.73;;;32.55;52.51
31011;BME280;26395;53.412;19.598;2023-08-24T08:48:32;100591.06;;;31.09;52.35
31011;BME280;26395;53.412;19.598;2023-08-24T09:03:36;100580.30;;;30.48;52.64
31011;BME280;26395;53.412;19.598;2023-08-24T09:18:43;100575.29;;;31.53;51.24
31011;BME280;26395;53.412;19.598;2023-08-24T09:33:47;100570.02;;;33.24;48.60
31011;BME280;26395;53.412;19.598;2023-08-24T09:48:53;100563.23;;;33.80;47.48
31011;BME280;26395;53.412;19.598;2023-08-24T10:03:57;100551.52;;;34.86;45.44
31011;BME280;26395;53.412;19.598;2023-08-24T10:19:03;100546.19;;;34.15;45.82
31011;BME280;26395;53.412;19.598;2023-08-24T10:34:07;100545.52;;;33.35;46.32
31011;BME280;26395;53.412;19.598;2023-08-24T10:49:19;100539.61;;;31.52;48.69
31011;BME280;26395;53.412;19.598;2023-08-24T11:04:22;100530.73;;;31.08;49.97
31011;BME280;26395;53.412;19.598;2023-08-24T11:19:27;100518.48;;;30.94;50.54
31011;BME280;26395;53.412;19.598;2023-08-24T11:34:30;100509.93;;;30.91;51.58
31011;BME280;26395;53.412;19.598;2023-08-24T11:49:35;100501.21;;;31.11;51.09
31011;BME280;26395;53.412;19.598;2023-08-24T12:04:42;100498.84;;;31.38;48.54
31011;BME280;26395;53.412;19.598;2023-08-24T12:19:58;100490.48;;;32.38;46.63
31011;BME280;26395;53.412;19.598;2023-08-24T12:35:03;100482.40;;;32.03;46.66
31011;BME280;26395;53.412;19.598;2023-08-24T12:50:08;100470.59;;;31.21;48.13
31011;BME280;26395;53.412;19.598;2023-08-24T13:05:12;100454.48;;;31.45;48.89
31011;BME280;26395;53.412;19.598;2023-08-24T13:20:16;100439.95;;;31.47;48.12
31011;BME280;26395;53.412;19.598;2023-08-24T13:35:19;100428.80;;;30.99;48.79
31011;BME280;26395;53.412;19.598;2023-08-24T13:50:22;100425.56;;;31.76;48.83
31011;BME280;26395;53.412;19.598;2023-08-24T14:05:26;100408.55;;;32.30;48.08
31011;BME280;26395;53.412;19.598;2023-08-24T14:20:29;100401.51;;;32.91;47.70
31011;BME280;26395;53.412;19.598;2023-08-24T14:35:33;100397.12;;;32.47;47.62
31011;BME280;26395;53.412;19.598;2023-08-24T14:50:40;100396.33;;;31.82;48.66
31011;BME280;26395;53.412;19.598;2023-08-24T15:05:45;100382.50;;;31.98;48.82
31011;BME280;26395;53.412;19.598;2023-08-24T15:20:49;100361.81;;;31.89;49.02
31011;BME280;26395;53.412;19.598;2023-08-24T15:35:53;100355.48;;;31.75;49.20
31011;BME280;26395;53.412;19.598;2023-08-24T15:50:57;100359.69;;;31.27;49.82
31011;BME280;26395;53.412;19.598;2023-08-24T16:06:02;100338.96;;;31.07;50.43
31011;BME280;26395;53.412;19.598;2023-08-24T16:21:05;100306.08;;;30.64;51.23
31011;BME280;26395;53.412;19.598;2023-08-24T16:36:10;100314.08;;;30.21;52.19
31011;BME280;26395;53.412;19.598;2023-08-24T16:51:14;100319.26;;;29.83;52.64
31011;BME280;26395;53.412;19.598;2023-08-24T17:06:17;100313.52;;;29.23;54.04
31011;BME280;26395;53.412;19.598;2023-08-24T17:21:21;100295.68;;;28.03;55.40
31011;BME280;26395;53.412;19.598;2023-08-24T17:36:24;100310.81;;;27.05;56.98
31011;BME280;26395;53.412;19.598;2023-08-24T17:51:27;100309.23;;;25.83;59.45
31011;BME280;26395;53.412;19.598;2023-08-24T18:06:34;100320.72;;;24.96;62.66
31011;BME280;26395;53.412;19.598;2023-08-24T18:21:37;100324.08;;;24.36;63.41
31011;BME280;26395;53.412;19.598;2023-08-24T18:36:41;100323.81;;;24.27;64.17
31011;BME280;26395;53.412;19.598;2023-08-24T18:51:45;100330.52;;;23.66;64.91
31011;BME280;26395;53.412;19.598;2023-08-24T19:06:48;100349.67;;;23.21;66.35
31011;BME280;26395;53.412;19.598;2023-08-24T19:21:52;100348.92;;;22.81;67.63
31011;BME280;26395;53.412;19.598;2023-08-24T19:36:56;100341.98;;;22.44;68.23
31011;BME280;26395;53.412;19.598;2023-08-24T19:51:59;100316.90;;;21.89;69.39
31011;BME280;26395;53.412;19.598;2023-08-24T20:07:03;100308.01;;;21.86;69.98
31011;BME280;26395;53.412;19.598;2023-08-24T20:22:08;100296.08;;;21.70;70.74
31011;BME280;26395;53.412;19.598;2023-08-24T20:37:12;100281.64;;;21.42;71.43
31011;BME280;26395;53.412;19.598;2023-08-24T20:52:19;100283.78;;;21.40;72.65
31011;BME280;26395;53.412;19.598;2023-08-24T21:07:24;100277.23;;;21.19;73.47
31011;BME280;26395;53.412;19.598;2023-08-24T21:22:28;100264.48;;;21.12;73.53
31011;BME280;26395;53.412;19.598;2023-08-24T21:37:31;100266.89;;;21.07;73.88
31011;BME280;26395;53.412;19.598;2023-08-24T21:52:35;100261.63;;;20.96;74.95
31011;BME280;26395;53.412;19.598;2023-08-24T22:07:38;100257.09;;;20.75;75.76
31011;BME280;26395;53.412;19.598;2023-08-24T22:22:42;100257.17;;;20.49;77.50
31011;BME280;26395;53.412;19.598;2023-08-24T22:37:45;100256.42;;;20.32;78.74
31011;BME280;26395;53.412;19.598;2023-08-24T22:52:49;100235.58;;;20.17;78.41
31011;BME280;26395;53.412;19.598;2023-08-24T23:07:52;100215.98;;;20.09;78.70
31011;BME280;26395;53.412;19.598;2023-08-24T23:22:56;100199.92;;;20.16;79.43
31011;BME280;26395;53.412;19.598;2023-08-24T23:38:00;100174.56;;;20.14;79.56
31011;BME280;26395;53.412;19.598;2023-08-24T23:53:03;100158.73;;;19.98;80.25
